Minnehaha Springs, West Virginia
Current Conditions -  °F | °C
As of 5:55 PM on Saturday 20 Dec 2014 (Local Time) from KHSP Reporting Station
Overcast Overcast  
Wind Chill: 23°   Ceiling: 4800
Heat Index: 31°   Visibility: 10mi
Dew Point: 27°   Wind: 8mph
Humidity: 86%   Direction: 270°W
Pressure: 30.07"   Gusts: NA
Location:  38.2213°N, 80.0565°W
Report Text: KHSP 202255Z AUTO 27007KT 10SM SCT008 OVC048 M01/M03 A3007 RMK AO2 T10061027
Loading
Personal Weather Stations






























Interactive Weather Map New forecast layout! Learn more

10-Day Weather Forecast

Advertisements
Track Severe Weather on mobile